Terminal Aerodrome Forecast
Issued by NWS

Current Version | Previous Version | Graphics & Text | Print | Product List | Glossary On
Versions: 1 2 3 4 5 6 7 8 9 10 11 12 13 14 15 16 17 18 19 20 21 22 23 24 25
000
FTUS41 KILN 221000 AAD
TAFLCK
TAF AMD
KLCK 221009Z 2210/2306 14003KT 5SM BR SCT060 SCT070 BKN090
     FM221200 22005KT P6SM VCSH SCT020 OVC090
      TEMPO 2212/2216 3SM TSRA OVC020CB
     FM221800 25008KT P6SM BKN035
     FM222300 25008KT P6SM VCTS BKN035CB
     FM230300 24004KT P6SM SCT040 BKN080=

USA.gov is the U.S. government's official web portal to all federal, state and local government web resources and services.